Messwerte Racine

Temperatur

Temperatur
°C
1573423200 16.00 16.00 3
1573426800 17.00 17.00 3
1573430400 18.00 18.00
1573434000 19.00 19.00 3
1573437600 20.00 20.00 2
1573441200 21.00 21.00 1
1573444800 22.00 22.00 1
1573448400 23.00 23.00 0
1573452000 0.00 0.00 0
1573455600 1.00 1.00 -1
1573459200 2.00 2.00 -2
1573462800 3.00 3.00 -3
1573466400 4.00 4.00 -4
1573470000 5.00 5.00
1573473600 6.00 6.00 -6
1573477200 7.00 7.00 -6
1573480800 8.00 8.00 -6
1573484400 9.00 9.00
1573488000 10.00 10.00 -6
1573491600 11.00 11.00 -6
1573495200 12.00 12.00 -6
1573498800 13.00 13.00 -6
1573502400 14.00 14.00 -6
1573506000 15.00 15.00 -6

Aktuellste Messwerte

Wettercharakter
Wetter: bedeckt, etwas Schnee
Temperatur
-6 °C
Feuchtigkeit
75 %
Wind
25 km/hWindrichtung: Nordwest
Böen
45 km/h
Luftdruck
1025 hPa
Messzeit: 11. November 2019, 15.00Datenquelle: METAR

Weitere Messstationen in der Nähe

Messstation Temperatur Entfernung
Kenosha -6 °C 21 km
Milwaukee -5 °C 22 km
Waukegan -6 °C 38 km
Burlington - 41 km
Milwaukee / Timmerman -6 °C 43 km
Waukesha -6 °C 47 km
Chicago / Wheeling -6 °C 71 km

Wind

Windrichtung Böen Mittelwind
° km/h km/h
1573423200 16.00 15.00 - 16.00 20° 20
1573426800 17.00 16.00 - 17.00 360° 15
1573430400 18.00 17.00 - 18.00
1573434000 19.00 18.00 - 19.00 360° 20
1573437600 20.00 19.00 - 20.00 350° 20
1573441200 21.00 20.00 - 21.00 350° 15
1573444800 22.00 21.00 - 22.00 10° 45 30
1573448400 23.00 22.00 - 23.00 10° 55 30
1573452000 0.00 23.00 - 0.00 20° 55 40
1573455600 1.00 0.00 - 1.00 360° 50 30
1573459200 2.00 1.00 - 2.00 360° 55 30
1573462800 3.00 2.00 - 3.00 360° 45 30
1573466400 4.00 3.00 - 4.00 350° 45 30
1573470000 5.00 4.00 - 5.00
1573473600 6.00 5.00 - 6.00 330° 35 25
1573477200 7.00 6.00 - 7.00 330° 40 30
1573480800 8.00 7.00 - 8.00 330° 40 25
1573484400 9.00 8.00 - 9.00
1573488000 10.00 9.00 - 10.00 340° 40 25
1573491600 11.00 10.00 - 11.00 340° 55 25
1573495200 12.00 11.00 - 12.00 330° 45 30
1573498800 13.00 12.00 - 13.00 330° 50 30
1573502400 14.00 13.00 - 14.00 350° 45 30
1573506000 15.00 14.00 - 15.00 340° 45 25

Ihre Wetterstation

Fehlt Ihre Wetterstation auf unserem Portal?

Schreiben Sie an network@meteonews.ch

Klima

Wann ist es am wärmsten? Wann regnet es am wenigsten? Unsere Klimadaten geben Auskunft.